sensor_id;sensor_type;location;lat;lon;timestamp;pressure;altitude;pressure_sealevel;temperature;humidity
28004;BME280;15330;51.234;6.754;2022-09-24T00:01:37;100899.25;;;15.60;70.70
28004;BME280;15330;51.234;6.754;2022-09-24T00:04:05;100891.94;;;15.54;71.39
28004;BME280;15330;51.234;6.754;2022-09-24T00:06:36;100884.84;;;15.10;73.16
28004;BME280;15330;51.234;6.754;2022-09-24T00:09:02;100883.97;;;15.24;72.32
28004;BME280;15330;51.234;6.754;2022-09-24T00:11:28;100889.09;;;15.40;71.80
28004;BME280;15330;51.234;6.754;2022-09-24T00:13:55;100888.13;;;15.48;71.68
28004;BME280;15330;51.234;6.754;2022-09-24T00:16:22;100890.63;;;15.50;71.49
28004;BME280;15330;51.234;6.754;2022-09-24T00:18:49;100887.56;;;15.31;72.60
28004;BME280;15330;51.234;6.754;2022-09-24T00:21:24;100895.28;;;14.98;74.09
28004;BME280;15330;51.234;6.754;2022-09-24T00:23:55;100889.78;;;15.06;73.35
28004;BME280;15330;51.234;6.754;2022-09-24T00:26:21;100892.41;;;15.00;73.76
28004;BME280;15330;51.234;6.754;2022-09-24T00:29:06;100889.03;;;15.13;73.17
28004;BME280;15330;51.234;6.754;2022-09-24T00:31:32;100884.72;;;15.18;72.68
28004;BME280;15330;51.234;6.754;2022-09-24T00:33:58;100886.69;;;15.24;73.03
28004;BME280;15330;51.234;6.754;2022-09-24T00:36:25;100892.69;;;15.26;72.91
28004;BME280;15330;51.234;6.754;2022-09-24T00:38:53;100888.59;;;15.30;72.48
28004;BME280;15330;51.234;6.754;2022-09-24T00:41:20;100890.72;;;15.14;73.61
28004;BME280;15330;51.234;6.754;2022-09-24T00:43:47;100888.53;;;14.88;74.95
28004;BME280;15330;51.234;6.754;2022-09-24T00:46:34;100891.72;;;14.77;75.47
28004;BME280;15330;51.234;6.754;2022-09-24T00:49:14;100889.56;;;14.87;74.67
28004;BME280;15330;51.234;6.754;2022-09-24T00:51:42;100888.94;;;15.06;74.10
28004;BME280;15330;51.234;6.754;2022-09-24T00:54:16;100892.69;;;15.26;72.90
28004;BME280;15330;51.234;6.754;2022-09-24T00:56:45;100892.06;;;15.24;73.34
28004;BME280;15330;51.234;6.754;2022-09-24T00:59:14;100888.59;;;15.30;73.04
28004;BME280;15330;51.234;6.754;2022-09-24T01:01:42;100887.38;;;15.12;73.58
28004;BME280;15330;51.234;6.754;2022-09-24T01:04:09;100881.19;;;15.18;73.26
28004;BME280;15330;51.234;6.754;2022-09-24T01:06:35;100890.53;;;15.15;74.02
28004;BME280;15330;51.234;6.754;2022-09-24T01:09:01;100883.19;;;15.09;74.59
28004;BME280;15330;51.234;6.754;2022-09-24T01:23:04;100868.19;;;15.21;74.10
28004;BME280;15330;51.234;6.754;2022-09-24T01:30:53;100853.03;;;15.20;74.56
28004;BME280;15330;51.234;6.754;2022-09-24T01:33:25;100865.94;;;15.25;74.06
28004;BME280;15330;51.234;6.754;2022-09-24T01:35:55;100860.94;;;15.22;74.21
28004;BME280;15330;51.234;6.754;2022-09-24T01:38:25;100851.38;;;15.19;73.90
28004;BME280;15330;51.234;6.754;2022-09-24T01:40:53;100859.31;;;15.27;74.00
28004;BME280;15330;51.234;6.754;2022-09-24T01:43:23;100858.84;;;14.81;76.30
28004;BME280;15330;51.234;6.754;2022-09-24T01:45:54;100858.59;;;14.97;75.66
28004;BME280;15330;51.234;6.754;2022-09-24T01:48:23;100854.84;;;15.13;74.92
28004;BME280;15330;51.234;6.754;2022-09-24T01:50:56;100855.59;;;15.07;75.33
28004;BME280;15330;51.234;6.754;2022-09-24T01:53:26;100846.34;;;15.16;75.04
28004;BME280;15330;51.234;6.754;2022-09-24T01:55:58;100844.31;;;15.18;74.35
28004;BME280;15330;51.234;6.754;2022-09-24T02:01:17;100838.91;;;15.18;74.35
28004;BME280;15330;51.234;6.754;2022-09-24T02:03:48;100841.94;;;15.09;75.35
28004;BME280;15330;51.234;6.754;2022-09-24T02:06:21;100843.59;;;15.10;75.30
28004;BME280;15330;51.234;6.754;2022-09-24T02:08:47;100841.19;;;15.15;75.29
28004;BME280;15330;51.234;6.754;2022-09-24T02:11:32;100829.75;;;15.13;75.11
28004;BME280;15330;51.234;6.754;2022-09-24T02:14:11;100830.22;;;14.95;75.48
28004;BME280;15330;51.234;6.754;2022-09-24T02:16:47;100826.34;;;15.04;75.50
28004;BME280;15330;51.234;6.754;2022-09-24T02:19:16;100831.16;;;15.09;75.61
28004;BME280;15330;51.234;6.754;2022-09-24T02:21:43;100836.22;;;14.97;76.78
28004;BME280;15330;51.234;6.754;2022-09-24T02:24:15;100835.13;;;14.91;77.00
28004;BME280;15330;51.234;6.754;2022-09-24T02:26:42;100834.16;;;14.99;76.68
28004;BME280;15330;51.234;6.754;2022-09-24T02:29:08;100829.81;;;14.98;76.56
28004;BME280;15330;51.234;6.754;2022-09-24T02:31:37;100823.38;;;14.78;77.85
28004;BME280;15330;51.234;6.754;2022-09-24T02:34:09;100826.41;;;14.89;77.04
28004;BME280;15330;51.234;6.754;2022-09-24T02:36:46;100815.16;;;14.86;77.46
28004;BME280;15330;51.234;6.754;2022-09-24T02:39:12;100816.91;;;14.72;77.55
28004;BME280;15330;51.234;6.754;2022-09-24T02:41:38;100804.47;;;14.56;78.35
28004;BME280;15330;51.234;6.754;2022-09-24T02:44:05;100808.28;;;14.62;78.38
28004;BME280;15330;51.234;6.754;2022-09-24T02:46:30;100809.34;;;14.82;77.43
28004;BME280;15330;51.234;6.754;2022-09-24T02:48:55;100792.78;;;14.85;77.21
28004;BME280;15330;51.234;6.754;2022-09-24T02:51:22;100799.97;;;14.78;77.34
28004;BME280;15330;51.234;6.754;2022-09-24T02:53:47;100797.19;;;14.50;78.69
28004;BME280;15330;51.234;6.754;2022-09-24T02:56:12;100795.66;;;14.62;78.35
28004;BME280;15330;51.234;6.754;2022-09-24T02:58:38;100779.59;;;14.54;77.90
28004;BME280;15330;51.234;6.754;2022-09-24T03:01:04;100792.97;;;14.62;77.84
28004;BME280;15330;51.234;6.754;2022-09-24T03:03:30;100794.09;;;14.24;79.32
28004;BME280;15330;51.234;6.754;2022-09-24T03:05:55;100797.81;;;14.52;78.58
28004;BME280;15330;51.234;6.754;2022-09-24T03:08:21;100794.19;;;14.45;78.30
28004;BME280;15330;51.234;6.754;2022-09-24T03:10:48;100790.78;;;14.51;78.04
28004;BME280;15330;51.234;6.754;2022-09-24T03:13:15;100780.75;;;14.45;78.32
28004;BME280;15330;51.234;6.754;2022-09-24T03:15:42;100785.72;;;14.63;77.44
28004;BME280;15330;51.234;6.754;2022-09-24T03:18:07;100787.63;;;14.48;78.00
28004;BME280;15330;51.234;6.754;2022-09-24T03:20:33;100778.06;;;14.45;78.16
28004;BME280;15330;51.234;6.754;2022-09-24T03:22:58;100777.13;;;14.53;78.09
28004;BME280;15330;51.234;6.754;2022-09-24T03:25:24;100778.41;;;14.57;77.78
28004;BME280;15330;51.234;6.754;2022-09-24T03:27:49;100780.66;;;14.24;78.61
28004;BME280;15330;51.234;6.754;2022-09-24T03:30:15;100774.00;;;14.20;78.92
28004;BME280;15330;51.234;6.754;2022-09-24T03:32:59;100763.16;;;13.84;80.28
28004;BME280;15330;51.234;6.754;2022-09-24T03:35:24;100769.75;;;14.11;79.52
28004;BME280;15330;51.234;6.754;2022-09-24T03:37:50;100768.53;;;13.84;80.35
28004;BME280;15330;51.234;6.754;2022-09-24T03:40:16;100760.03;;;13.80;80.42
28004;BME280;15330;51.234;6.754;2022-09-24T03:42:42;100759.34;;;13.64;81.17
28004;BME280;15330;51.234;6.754;2022-09-24T03:45:08;100760.75;;;13.89;79.95
28004;BME280;15330;51.234;6.754;2022-09-24T03:47:33;100755.75;;;14.01;79.73
28004;BME280;15330;51.234;6.754;2022-09-24T03:49:59;100754.16;;;13.91;79.94
28004;BME280;15330;51.234;6.754;2022-09-24T03:52:24;100762.50;;;13.96;80.07
28004;BME280;15330;51.234;6.754;2022-09-24T03:54:51;100760.47;;;13.99;79.67
28004;BME280;15330;51.234;6.754;2022-09-24T03:57:16;100759.81;;;13.82;80.31
28004;BME280;15330;51.234;6.754;2022-09-24T03:59:42;100761.97;;;13.86;79.75
28004;BME280;15330;51.234;6.754;2022-09-24T04:02:09;100760.28;;;13.71;80.44
28004;BME280;15330;51.234;6.754;2022-09-24T04:04:34;100756.94;;;13.83;79.28
28004;BME280;15330;51.234;6.754;2022-09-24T04:07:00;100764.72;;;13.93;79.04
28004;BME280;15330;51.234;6.754;2022-09-24T04:09:25;100745.53;;;13.96;78.22
28004;BME280;15330;51.234;6.754;2022-09-24T04:11:51;100760.09;;;13.72;79.60
28004;BME280;15330;51.234;6.754;2022-09-24T04:14:17;100766.19;;;13.37;80.52
28004;BME280;15330;51.234;6.754;2022-09-24T04:16:43;100768.81;;;13.74;79.12
28004;BME280;15330;51.234;6.754;2022-09-24T04:19:09;100758.06;;;13.59;79.99
28004;BME280;15330;51.234;6.754;2022-09-24T04:21:36;100767.41;;;13.93;79.09
28004;BME280;15330;51.234;6.754;2022-09-24T04:24:02;100757.69;;;13.77;79.38
28004;BME280;15330;51.234;6.754;2022-09-24T04:26:27;100751.03;;;13.58;80.12
28004;BME280;15330;51.234;6.754;2022-09-24T04:28:53;100750.72;;;13.53;80.56
28004;BME280;15330;51.234;6.754;2022-09-24T04:31:18;100757.38;;;13.28;81.32
28004;BME280;15330;51.234;6.754;2022-09-24T04:33:44;100761.31;;;13.70;80.42
28004;BME280;15330;51.234;6.754;2022-09-24T04:36:09;100755.75;;;13.56;80.37
28004;BME280;15330;51.234;6.754;2022-09-24T04:38:34;100755.09;;;13.69;80.00
28004;BME280;15330;51.234;6.754;2022-09-24T04:41:06;100755.25;;;13.53;80.42
28004;BME280;15330;51.234;6.754;2022-09-24T04:43:32;100760.47;;;13.69;80.31
28004;BME280;15330;51.234;6.754;2022-09-24T04:45:58;100753.88;;;13.72;79.70
28004;BME280;15330;51.234;6.754;2022-09-24T04:48:24;100754.69;;;13.43;80.87
28004;BME280;15330;51.234;6.754;2022-09-24T04:50:49;100754.81;;;13.49;80.73
28004;BME280;15330;51.234;6.754;2022-09-24T04:53:14;100760.38;;;13.48;80.96
28004;BME280;15330;51.234;6.754;2022-09-24T04:55:40;100756.63;;;13.34;81.36
28004;BME280;15330;51.234;6.754;2022-09-24T04:58:06;100763.50;;;13.51;80.65
28004;BME280;15330;51.234;6.754;2022-09-24T05:00:31;100759.41;;;13.41;81.43
28004;BME280;15330;51.234;6.754;2022-09-24T05:02:58;100765.34;;;13.51;81.00
28004;BME280;15330;51.234;6.754;2022-09-24T05:05:24;100757.13;;;13.52;81.29
28004;BME280;15330;51.234;6.754;2022-09-24T05:07:50;100764.34;;;13.52;81.43
28004;BME280;15330;51.234;6.754;2022-09-24T05:10:17;100761.34;;;13.32;82.06
28004;BME280;15330;51.234;6.754;2022-09-24T05:12:42;100767.19;;;13.36;82.61
28004;BME280;15330;51.234;6.754;2022-09-24T05:15:08;100755.25;;;13.38;82.09
28004;BME280;15330;51.234;6.754;2022-09-24T05:17:37;100756.84;;;13.47;82.07
28004;BME280;15330;51.234;6.754;2022-09-24T05:20:03;100751.75;;;13.38;82.16
28004;BME280;15330;51.234;6.754;2022-09-24T05:22:28;100751.75;;;13.38;82.49
28004;BME280;15330;51.234;6.754;2022-09-24T05:24:55;100756.63;;;13.34;82.88
28004;BME280;15330;51.234;6.754;2022-09-24T05:27:20;100757.13;;;13.52;82.15
28004;BME280;15330;51.234;6.754;2022-09-24T05:29:47;100759.41;;;13.26;83.30
28004;BME280;15330;51.234;6.754;2022-09-24T05:32:15;100752.53;;;13.23;83.63
28004;BME280;15330;51.234;6.754;2022-09-24T05:34:42;100747.03;;;13.54;82.26
28004;BME280;15330;51.234;6.754;2022-09-24T05:37:09;100753.72;;;13.58;82.37
28004;BME280;15330;51.234;6.754;2022-09-24T05:39:34;100755.72;;;13.71;81.44
28004;BME280;15330;51.234;6.754;2022-09-24T05:42:00;100763.34;;;13.82;81.37
28004;BME280;15330;51.234;6.754;2022-09-24T05:44:27;100754.25;;;13.83;81.01
28004;BME280;15330;51.234;6.754;2022-09-24T05:46:53;100765.84;;;13.99;80.57
28004;BME280;15330;51.234;6.754;2022-09-24T05:49:19;100765.75;;;13.92;80.64
28004;BME280;15330;51.234;6.754;2022-09-24T05:51:46;100762.97;;;13.85;80.98
28004;BME280;15330;51.234;6.754;2022-09-24T05:54:12;100772.53;;;13.88;80.94
28004;BME280;15330;51.234;6.754;2022-09-24T05:56:37;100770.28;;;13.91;80.94
28004;BME280;15330;51.234;6.754;2022-09-24T05:59:03;100768.06;;;13.95;80.92
28004;BME280;15330;51.234;6.754;2022-09-24T06:01:29;100769.66;;;13.89;81.31
28004;BME280;15330;51.234;6.754;2022-09-24T06:03:55;100775.03;;;13.89;81.13
28004;BME280;15330;51.234;6.754;2022-09-24T06:06:21;100776.16;;;13.80;81.62
28004;BME280;15330;51.234;6.754;2022-09-24T06:08:47;100775.69;;;13.77;81.75
28004;BME280;15330;51.234;6.754;2022-09-24T06:11:12;100781.59;;;13.72;82.08
28004;BME280;15330;51.234;6.754;2022-09-24T06:13:38;100778.63;;;13.82;81.76
28004;BME280;15330;51.234;6.754;2022-09-24T06:16:06;100779.56;;;13.74;82.08
28004;BME280;15330;51.234;6.754;2022-09-24T06:18:33;100776.63;;;13.69;82.13
28004;BME280;15330;51.234;6.754;2022-09-24T06:21:03;100787.63;;;13.74;81.86
28004;BME280;15330;51.234;6.754;2022-09-24T06:23:30;100790.88;;;13.70;81.83
28004;BME280;15330;51.234;6.754;2022-09-24T06:25:56;100785.63;;;13.91;81.19
28004;BME280;15330;51.234;6.754;2022-09-24T06:28:22;100787.09;;;14.08;80.66
28004;BME280;15330;51.234;6.754;2022-09-24T06:30:48;100783.38;;;13.80;81.71
28004;BME280;15330;51.234;6.754;2022-09-24T06:33:13;100786.06;;;13.94;81.03
28004;BME280;15330;51.234;6.754;2022-09-24T06:35:40;100791.72;;;14.00;80.73
28004;BME280;15330;51.234;6.754;2022-09-24T06:38:10;100795.53;;;14.20;79.93
28004;BME280;15330;51.234;6.754;2022-09-24T06:40:36;100791.19;;;13.89;81.25
28004;BME280;15330;51.234;6.754;2022-09-24T06:43:06;100791.72;;;14.00;80.73
28004;BME280;15330;51.234;6.754;2022-09-24T06:45:32;100795.81;;;14.10;80.51
28004;BME280;15330;51.234;6.754;2022-09-24T06:47:59;100792.38;;;14.16;80.01
28004;BME280;15330;51.234;6.754;2022-09-24T06:50:28;100796.81;;;14.53;78.90
28004;BME280;15330;51.234;6.754;2022-09-24T06:52:54;100797.47;;;14.77;77.79
28004;BME280;15330;51.234;6.754;2022-09-24T06:55:20;100801.31;;;14.89;76.92
28004;BME280;15330;51.234;6.754;2022-09-24T06:57:47;100799.78;;;14.80;76.86
28004;BME280;15330;51.234;6.754;2022-09-24T07:00:13;100795.03;;;14.46;78.01
28004;BME280;15330;51.234;6.754;2022-09-24T07:02:39;100797.66;;;14.75;77.25
28004;BME280;15330;51.234;6.754;2022-09-24T07:05:06;100802.44;;;14.58;77.64
28004;BME280;15330;51.234;6.754;2022-09-24T07:07:32;100793.66;;;14.20;78.87
28004;BME280;15330;51.234;6.754;2022-09-24T07:10:04;100795.97;;;14.53;78.23
28004;BME280;15330;51.234;6.754;2022-09-24T07:12:31;100802.19;;;14.24;78.83
28004;BME280;15330;51.234;6.754;2022-09-24T07:14:57;100803.41;;;13.92;80.35
28004;BME280;15330;51.234;6.754;2022-09-24T07:17:24;100794.50;;;14.21;79.26
28004;BME280;15330;51.234;6.754;2022-09-24T07:19:50;100798.28;;;14.26;79.08
28004;BME280;15330;51.234;6.754;2022-09-24T07:22:15;100801.72;;;14.35;78.76
28004;BME280;15330;51.234;6.754;2022-09-24T07:24:41;100811.19;;;14.16;79.78
28004;BME280;15330;51.234;6.754;2022-09-24T07:27:07;100809.03;;;14.56;78.15
28004;BME280;15330;51.234;6.754;2022-09-24T07:29:33;100811.16;;;14.60;77.81
28004;BME280;15330;51.234;6.754;2022-09-24T07:31:58;100814.50;;;14.62;77.75
28004;BME280;15330;51.234;6.754;2022-09-24T07:34:24;100817.75;;;14.73;77.42
28004;BME280;15330;51.234;6.754;2022-09-24T07:36:49;100819.44;;;14.44;78.62
28004;BME280;15330;51.234;6.754;2022-09-24T07:39:14;100821.09;;;14.60;77.69
28004;BME280;15330;51.234;6.754;2022-09-24T07:41:40;100818.91;;;14.49;77.99
28004;BME280;15330;51.234;6.754;2022-09-24T07:44:09;100824.56;;;14.75;77.50
28004;BME280;15330;51.234;6.754;2022-09-24T07:46:37;100828.31;;;14.95;76.84
28004;BME280;15330;51.234;6.754;2022-09-24T07:49:02;100826.75;;;14.65;77.61
28004;BME280;15330;51.234;6.754;2022-09-24T07:51:28;100827.34;;;14.46;78.04
28004;BME280;15330;51.234;6.754;2022-09-24T07:53:54;100831.16;;;14.51;77.92
28004;BME280;15330;51.234;6.754;2022-09-24T07:56:20;100824.69;;;14.67;77.68
28004;BME280;15330;51.234;6.754;2022-09-24T07:58:50;100827.50;;;14.95;76.82
28004;BME280;15330;51.234;6.754;2022-09-24T08:01:17;100820.00;;;15.12;75.99
28004;BME280;15330;51.234;6.754;2022-09-24T08:03:43;100831.22;;;14.94;76.34
28004;BME280;15330;51.234;6.754;2022-09-24T08:06:09;100832.66;;;14.75;77.11
28004;BME280;15330;51.234;6.754;2022-09-24T08:08:34;100831.00;;;14.95;76.44
28004;BME280;15330;51.234;6.754;2022-09-24T08:11:04;100831.28;;;15.22;75.83
28004;BME280;15330;51.234;6.754;2022-09-24T08:13:30;100832.81;;;15.52;74.93
28004;BME280;15330;51.234;6.754;2022-09-24T08:15:59;100828.59;;;15.22;76.11
28004;BME280;15330;51.234;6.754;2022-09-24T08:18:26;100829.06;;;15.74;73.82
28004;BME280;15330;51.234;6.754;2022-09-24T08:20:52;100835.56;;;15.59;74.85
28004;BME280;15330;51.234;6.754;2022-09-24T08:23:18;100833.59;;;15.67;74.62
28004;BME280;15330;51.234;6.754;2022-09-24T08:25:45;100840.03;;;15.24;75.21
28004;BME280;15330;51.234;6.754;2022-09-24T08:28:10;100837.16;;;15.53;74.77
28004;BME280;15330;51.234;6.754;2022-09-24T08:30:36;100832.06;;;15.16;76.42
28004;BME280;15330;51.234;6.754;2022-09-24T08:33:03;100837.94;;;15.47;75.62
28004;BME280;15330;51.234;6.754;2022-09-24T08:35:32;100828.44;;;15.51;75.22
28004;BME280;15330;51.234;6.754;2022-09-24T08:37:58;100821.97;;;15.46;75.62
28004;BME280;15330;51.234;6.754;2022-09-24T08:40:27;100825.00;;;15.85;74.18
28004;BME280;15330;51.234;6.754;2022-09-24T08:45:24;100827.72;;;15.92;73.75
28004;BME280;15330;51.234;6.754;2022-09-24T08:48:13;100837.06;;;16.24;73.29
28004;BME280;15330;51.234;6.754;2022-09-24T08:50:50;100827.34;;;16.29;72.57
28004;BME280;15330;51.234;6.754;2022-09-24T08:56:07;100842.44;;;15.89;73.68
28004;BME280;15330;51.234;6.754;2022-09-24T08:58:55;100836.41;;;15.38;75.76
28004;BME280;15330;51.234;6.754;2022-09-24T09:09:19;100843.81;;;15.78;74.27
28004;BME280;15330;51.234;6.754;2022-09-24T09:11:51;100838.53;;;15.92;73.64
28004;BME280;15330;51.234;6.754;2022-09-24T09:14:38;100846.25;;;15.67;73.62
28004;BME280;15330;51.234;6.754;2022-09-24T09:17:11;100844.00;;;16.05;72.15
28004;BME280;15330;51.234;6.754;2022-09-24T09:19:39;100841.06;;;16.00;72.76
28004;BME280;15330;51.234;6.754;2022-09-24T09:22:13;100840.69;;;16.03;72.23
28004;BME280;15330;51.234;6.754;2022-09-24T09:24:50;100845.91;;;16.45;71.21
28004;BME280;15330;51.234;6.754;2022-09-24T09:27:18;100851.16;;;17.28;69.21
28004;BME280;15330;51.234;6.754;2022-09-24T09:29:47;100827.81;;;18.19;65.81
28004;BME280;15330;51.234;6.754;2022-09-24T09:32:26;100836.63;;;17.94;65.38
28004;BME280;15330;51.234;6.754;2022-09-24T09:40:34;100839.06;;;18.80;62.34
28004;BME280;15330;51.234;6.754;2022-09-24T09:43:06;100830.53;;;20.32;58.25
28004;BME280;15330;51.234;6.754;2022-09-24T09:45:40;100830.91;;;20.17;58.50
28004;BME280;15330;51.234;6.754;2022-09-24T09:48:09;100820.78;;;21.74;54.84
28004;BME280;15330;51.234;6.754;2022-09-24T09:50:45;100832.31;;;20.45;55.94
28004;BME280;15330;51.234;6.754;2022-09-24T09:53:23;100832.22;;;21.11;54.10
28004;BME280;15330;51.234;6.754;2022-09-24T09:55:58;100825.41;;;21.97;51.64
28004;BME280;15330;51.234;6.754;2022-09-24T09:58:26;100825.13;;;21.52;50.66
28004;BME280;15330;51.234;6.754;2022-09-24T10:01:11;100817.44;;;23.94;45.12
28004;BME280;15330;51.234;6.754;2022-09-24T10:06:10;100811.31;;;22.12;48.76
28004;BME280;15330;51.234;6.754;2022-09-24T10:08:36;100824.41;;;21.33;49.72
28004;BME280;15330;51.234;6.754;2022-09-24T10:11:01;100824.63;;;19.56;53.93
28004;BME280;15330;51.234;6.754;2022-09-24T10:13:28;100814.97;;;23.42;46.66
28004;BME280;15330;51.234;6.754;2022-09-24T10:15:57;100824.22;;;24.08;43.37
28004;BME280;15330;51.234;6.754;2022-09-24T10:18:30;100822.75;;;21.32;49.87
28004;BME280;15330;51.234;6.754;2022-09-24T10:20:58;100826.09;;;20.20;53.13
28004;BME280;15330;51.234;6.754;2022-09-24T10:23:38;100826.59;;;20.10;53.71
28004;BME280;15330;51.234;6.754;2022-09-24T10:26:06;100829.06;;;19.50;55.96
28004;BME280;15330;51.234;6.754;2022-09-24T10:28:33;100825.28;;;19.51;56.16
28004;BME280;15330;51.234;6.754;2022-09-24T10:31:21;100829.81;;;18.94;58.17
28004;BME280;15330;51.234;6.754;2022-09-24T10:33:49;100823.69;;;19.37;57.45
28004;BME280;15330;51.234;6.754;2022-09-24T10:36:19;100828.25;;;19.12;56.63
28004;BME280;15330;51.234;6.754;2022-09-24T10:38:46;100827.13;;;19.26;57.27
28004;BME280;15330;51.234;6.754;2022-09-24T10:41:28;100828.38;;;18.92;59.75
28004;BME280;15330;51.234;6.754;2022-09-24T10:43:56;100837.63;;;18.78;59.74
28004;BME280;15330;51.234;6.754;2022-09-24T10:57:33;100828.38;;;18.47;59.52
28004;BME280;15330;51.234;6.754;2022-09-24T11:00:27;100826.91;;;18.58;58.00
28004;BME280;15330;51.234;6.754;2022-09-24T11:05:55;100839.72;;;17.98;61.07
28004;BME280;15330;51.234;6.754;2022-09-24T11:08:38;100831.84;;;17.50;62.49
28004;BME280;15330;51.234;6.754;2022-09-24T11:11:28;100829.75;;;17.59;62.42
28004;BME280;15330;51.234;6.754;2022-09-24T11:30:29;100833.50;;;17.51;65.79
28004;BME280;15330;51.234;6.754;2022-09-24T11:33:02;100833.91;;;17.48;66.09
28004;BME280;15330;51.234;6.754;2022-09-24T11:41:30;100832.06;;;17.42;65.55
28004;BME280;15330;51.234;6.754;2022-09-24T11:43:52;100830.19;;;17.43;65.41
28004;BME280;15330;51.234;6.754;2022-09-24T11:51:57;100819.75;;;17.86;64.58
28004;BME280;15330;51.234;6.754;2022-09-24T11:57:21;100823.09;;;17.55;65.42
28004;BME280;15330;51.234;6.754;2022-09-24T12:00:12;100824.38;;;17.72;64.48
28004;BME280;15330;51.234;6.754;2022-09-24T12:08:08;100811.28;;;17.63;65.03
28004;BME280;15330;51.234;6.754;2022-09-24T12:10:45;100810.63;;;17.80;64.20
28004;BME280;15330;51.234;6.754;2022-09-24T12:13:46;100811.44;;;17.61;64.56
28004;BME280;15330;51.234;6.754;2022-09-24T12:16:16;100806.44;;;17.58;64.65
28004;BME280;15330;51.234;6.754;2022-09-24T12:18:52;100806.06;;;17.74;64.45
28004;BME280;15330;51.234;6.754;2022-09-24T12:21:46;100805.41;;;17.79;64.10
28004;BME280;15330;51.234;6.754;2022-09-24T12:24:17;100800.03;;;17.72;64.27
28004;BME280;15330;51.234;6.754;2022-09-24T12:26:45;100804.19;;;17.42;64.75
28004;BME280;15330;51.234;6.754;2022-09-24T12:29:39;100800.00;;;17.59;64.73
28004;BME280;15330;51.234;6.754;2022-09-24T12:32:33;100802.28;;;17.55;64.48
28004;BME280;15330;51.234;6.754;2022-09-24T12:38:05;100791.88;;;17.59;64.37
28004;BME280;15330;51.234;6.754;2022-09-24T12:40:40;100797.94;;;17.74;64.50
28004;BME280;15330;51.234;6.754;2022-09-24T12:43:28;100799.19;;;17.85;63.84
28004;BME280;15330;51.234;6.754;2022-09-24T12:46:03;100801.66;;;17.80;63.31
28004;BME280;15330;51.234;6.754;2022-09-24T12:48:33;100804.56;;;17.58;63.77
28004;BME280;15330;51.234;6.754;2022-09-24T12:51:01;100795.44;;;17.53;64.05
28004;BME280;15330;51.234;6.754;2022-09-24T12:53:36;100797.94;;;17.21;65.27
28004;BME280;15330;51.234;6.754;2022-09-24T12:56:03;100801.00;;;17.05;66.02
28004;BME280;15330;51.234;6.754;2022-09-24T12:58:39;100809.50;;;16.89;66.83
28004;BME280;15330;51.234;6.754;2022-09-24T13:03:39;100805.94;;;16.75;67.69
28004;BME280;15330;51.234;6.754;2022-09-24T13:06:41;100804.50;;;16.86;67.12
28004;BME280;15330;51.234;6.754;2022-09-24T13:12:21;100807.00;;;16.81;67.65
28004;BME280;15330;51.234;6.754;2022-09-24T13:15:07;100802.47;;;17.14;66.66
28004;BME280;15330;51.234;6.754;2022-09-24T13:17:34;100792.31;;;17.23;66.51
28004;BME280;15330;51.234;6.754;2022-09-24T13:20:13;100798.16;;;17.33;66.40
28004;BME280;15330;51.234;6.754;2022-09-24T13:22:41;100800.81;;;17.27;66.51
28004;BME280;15330;51.234;6.754;2022-09-24T13:30:18;100798.06;;;16.94;67.76
28004;BME280;15330;51.234;6.754;2022-09-24T13:35:34;100802.91;;;17.11;67.55
28004;BME280;15330;51.234;6.754;2022-09-24T13:38:14;100803.69;;;16.79;68.24
28004;BME280;15330;51.234;6.754;2022-09-24T13:40:49;100800.34;;;16.83;67.53
28004;BME280;15330;51.234;6.754;2022-09-24T13:45:57;100805.16;;;16.88;67.65
28004;BME280;15330;51.234;6.754;2022-09-24T13:48:35;100806.41;;;16.92;67.58
28004;BME280;15330;51.234;6.754;2022-09-24T13:51:06;100802.03;;;17.04;67.49
28004;BME280;15330;51.234;6.754;2022-09-24T13:54:01;100813.28;;;17.14;66.87
28004;BME280;15330;51.234;6.754;2022-09-24T13:56:28;100796.22;;;16.94;67.25
28004;BME280;15330;51.234;6.754;2022-09-24T13:59:08;100802.94;;;16.57;68.03
28004;BME280;15330;51.234;6.754;2022-09-24T14:01:40;100804.16;;;16.48;68.16
28004;BME280;15330;51.234;6.754;2022-09-24T14:04:20;100802.59;;;16.73;67.49
28004;BME280;15330;51.234;6.754;2022-09-24T14:06:52;100800.59;;;17.08;66.95
28004;BME280;15330;51.234;6.754;2022-09-24T14:11:49;100799.78;;;17.08;66.88
28004;BME280;15330;51.234;6.754;2022-09-24T14:14:17;100805.38;;;17.00;68.11
28004;BME280;15330;51.234;6.754;2022-09-24T14:16:45;100803.53;;;17.27;66.31
28004;BME280;15330;51.234;6.754;2022-09-24T14:19:14;100805.59;;;17.24;66.96
28004;BME280;15330;51.234;6.754;2022-09-24T14:21:56;100802.91;;;17.44;66.59
28004;BME280;15330;51.234;6.754;2022-09-24T14:24:23;100798.97;;;17.47;67.07
28004;BME280;15330;51.234;6.754;2022-09-24T14:26:52;100802.47;;;17.34;66.54
28004;BME280;15330;51.234;6.754;2022-09-24T14:29:30;100801.88;;;17.45;66.67
28004;BME280;15330;51.234;6.754;2022-09-24T14:32:00;100802.72;;;17.39;67.14
28004;BME280;15330;51.234;6.754;2022-09-24T14:34:36;100809.56;;;17.09;68.08
28004;BME280;15330;51.234;6.754;2022-09-24T14:37:09;100805.75;;;16.83;68.81
28004;BME280;15330;51.234;6.754;2022-09-24T14:39:39;100803.88;;;16.71;69.49
28004;BME280;15330;51.234;6.754;2022-09-24T14:42:19;100811.00;;;16.44;70.16
28004;BME280;15330;51.234;6.754;2022-09-24T14:44:46;100812.53;;;16.60;69.60
28004;BME280;15330;51.234;6.754;2022-09-24T14:47:39;100810.41;;;16.55;69.86
28004;BME280;15330;51.234;6.754;2022-09-24T14:50:25;100801.56;;;16.68;69.50
28004;BME280;15330;51.234;6.754;2022-09-24T14:52:55;100815.72;;;16.76;69.49
28004;BME280;15330;51.234;6.754;2022-09-24T14:55:21;100801.91;;;16.58;69.96
28004;BME280;15330;51.234;6.754;2022-09-24T14:57:48;100798.72;;;16.41;70.53